Time;durP1;ratioP1;P1;durP2;ratioP2;P2;SDS_P1;SDS_P2;PMS_P1;PMS_P2;Temp;Humidity;BMP_temperature;BMP_pressure;BME280_temperature;BME280_humidity;BME280_pressure;Samples;Min_cycle;Max_cycle;Signal;HPM_P1;HPM_P2
2023/05/19 00:01:53;;;;;;;;;;;;;;;;;;5173092;27;1540;-57
2023/05/19 00:04:21;;;;;;;;;;;;;;;;;;5173298;27;1897;-63
2023/05/19 00:06:50;;;;;;;;;;;;;;;;;;5177132;27;1648;-58
2023/05/19 00:09:17;;;;;;;;;;;;;;;;;;5176721;27;1988;-56
2023/05/19 00:11:44;;;;;;;;;;;;;;;;;;5177035;27;1656;-54
2023/05/19 00:14:12;;;;;;;;;;;;;;;;;;5176762;27;1769;-55
2023/05/19 00:16:41;;;;;;;;;;;;;;;;;;5177198;27;1848;-57
2023/05/19 00:19:11;;;;;;;;;;;;;;;;;;5176963;27;1517;-53
2023/05/19 00:21:39;;;;;;;;;;;;;;;;;;5176863;27;1697;-58
2023/05/19 00:24:06;;;;;;;;;;;;;;;;;;5176641;27;1958;-55
2023/05/19 00:26:34;;;;;;;;;;;;;;;;;;5176743;27;1566;-52
2023/05/19 00:29:04;;;;;;;;;;;;;;;;;;5176657;27;1813;-58
2023/05/19 00:31:32;;;;;;;;;;;;;;;;;;5176564;27;2187;-56
2023/05/19 00:34:00;;;;;;;;;;;;;;;;;;5176501;27;2046;-56
2023/05/19 00:36:27;;;;;;;;;;;;;;;;;;5176373;27;1186;-58
2023/05/19 00:38:55;;;;;;;;;;;;;;;;;;5176272;27;1633;-51
2023/05/19 00:41:22;;;;;;;;;;;;;;;;;;5176517;27;1982;-54
2023/05/19 00:43:50;;;;;;;;;;;;;;;;;;5176335;27;1968;-60
2023/05/19 00:46:18;;;;;;;;;;;;;;;;;;5176184;27;1987;-58
2023/05/19 00:48:46;;;;;;;;;;;;;;;;;;5157252;27;1949;-53
2023/05/19 00:51:15;;;;;;;;;;;;;;;;;;5157271;27;1711;-49
2023/05/19 00:53:47;;;;;;;;;;;;;;;;;;5157474;27;1639;-51
2023/05/19 00:56:15;;;;;;;;;;;;;;;;;;5176243;27;1653;-56
2023/05/19 00:58:42;;;;;;;;;;;;;;;;;;5158147;27;1524;-49
2023/05/19 01:01:10;;;;;;;;;;;;;;;;;;5155247;27;1340;-56
2023/05/19 01:03:39;;;;;;;;;;;;;;;;;;5136257;27;1969;-56
2023/05/19 01:06:06;;;;;;;;;;;;;;;;;;5155120;27;1581;-55
2023/05/19 01:08:35;;;;;;;;;;;;;;;;;;5155032;27;2225;-54
2023/05/19 01:11:03;;;;;;;;;;;;;;;;;;5154885;27;1809;-52
2023/05/19 01:13:30;;;;;;;;;;;;;;;;;;5154915;27;1926;-54
2023/05/19 01:16:11;;;;;;;;;;;;;;;;;;5154166;27;1482;-62
2023/05/19 01:19:00;;;;;;;;;;;;;;;;;;5154645;27;1848;-57
2023/05/19 01:21:35;;;;;;;;;;;;;;;;;;5154724;27;2160;-57
2023/05/19 01:24:08;;;;;;;;;;;;;;;;;;5154978;27;1978;-61
2023/05/19 01:26:52;;;;;;;;;;;;;;;;;;5154401;27;1831;-56
2023/05/19 01:29:38;;;;;;;;;;;;;;;;;;5154603;27;1992;-60
2023/05/19 01:32:06;;;;;;;;;;;;;;;;;;5154446;27;2055;-55
2023/05/19 01:34:37;;;;;;;;;;;;;;;;;;5154498;27;2238;-55
2023/05/19 01:37:06;;;;;;;;;;;;;;;;;;5154097;27;1769;-56
2023/05/19 01:39:34;;;;;;;;;;;;;;;;;;5154453;27;1656;-58
2023/05/19 01:42:03;;;;;;;;;;;;;;;;;;5154404;27;2087;-54
2023/05/19 01:44:31;;;;;;;;;;;;;;;;;;5153985;27;1910;-50
2023/05/19 01:46:59;;;;;;;;;;;;;;;;;;5135377;27;1760;-52
2023/05/19 01:49:26;;;;;;;;;;;;;;;;;;5153805;27;1540;-56
2023/05/19 01:51:54;;;;;;;;;;;;;;;;;;5150825;27;1820;-55
2023/05/19 01:54:21;;;;;;;;;;;;;;;;;;5156224;27;2183;-60
2023/05/19 01:56:48;;;;;;;;;;;;;;;;;;5172784;27;2001;-57
2023/05/19 01:59:22;;;;;;;;;;;;;;;;;;5135585;27;2033;-58
2023/05/19 02:01:53;;;;;;;;;;;;;;;;;;5164932;27;2266;-53
2023/05/19 02:04:30;;;;;;;;;;;;;;;;;;5174326;27;1973;-55
2023/05/19 02:07:04;;;;;;;;;;;;;;;;;;5174649;27;2327;-61
2023/05/19 02:09:39;;;;;;;;;;;;;;;;;;5174355;27;1376;-50
2023/05/19 02:12:15;;;;;;;;;;;;;;;;;;5152147;27;2079;-55
2023/05/19 02:14:43;;;;;;;;;;;;;;;;;;5153757;27;1947;-59
2023/05/19 02:17:11;;;;;;;;;;;;;;;;;;5134831;27;1522;-56
2023/05/19 02:19:39;;;;;;;;;;;;;;;;;;5153492;27;1599;-60
2023/05/19 02:22:06;;;;;;;;;;;;;;;;;;5153530;27;1818;-58
2023/05/19 02:24:35;;;;;;;;;;;;;;;;;;5153353;27;1971;-55
2023/05/19 02:27:03;;;;;;;;;;;;;;;;;;5153324;27;2189;-54
2023/05/19 02:29:30;;;;;;;;;;;;;;;;;;5152464;27;1735;-49
2023/05/19 02:31:58;;;;;;;;;;;;;;;;;;5153391;27;1659;-58
2023/05/19 02:34:25;;;;;;;;;;;;;;;;;;5153316;27;2042;-59
2023/05/19 02:36:52;;;;;;;;;;;;;;;;;;5153276;27;1767;-56
2023/05/19 02:39:19;;;;;;;;;;;;;;;;;;5153167;27;2067;-54
2023/05/19 02:41:47;;;;;;;;;;;;;;;;;;5153555;27;1943;-59
2023/05/19 02:44:14;;;;;;;;;;;;;;;;;;5152768;27;1901;-49
2023/05/19 02:46:41;;;;;;;;;;;;;;;;;;5134525;27;1949;-52
2023/05/19 02:49:08;;;;;;;;;;;;;;;;;;5153001;27;1822;-60
2023/05/19 02:51:36;;;;;;;;;;;;;;;;;;5134288;27;1775;-54
2023/05/19 02:54:03;;;;;;;;;;;;;;;;;;5134227;27;1822;-61
2023/05/19 02:56:30;;;;;;;;;;;;;;;;;;5152728;27;1968;-57
2023/05/19 02:58:58;;;;;;;;;;;;;;;;;;5134063;27;1765;-52
2023/05/19 03:01:25;;;;;;;;;;;;;;;;;;5134268;27;2325;-60
2023/05/19 03:03:52;;;;;;;;;;;;;;;;;;5152851;27;2093;-61
2023/05/19 03:06:22;;;;;;;;;;;;;;;;;;5134253;27;2000;-58
2023/05/19 03:08:49;;;;;;;;;;;;;;;;;;5134277;27;1570;-56
2023/05/19 03:11:16;;;;;;;;;;;;;;;;;;5153216;27;1467;-56
2023/05/19 03:13:44;;;;;;;;;;;;;;;;;;5151205;27;1815;-55
2023/05/19 03:16:11;;;;;;;;;;;;;;;;;;5152795;27;1993;-52
2023/05/19 03:18:38;;;;;;;;;;;;;;;;;;5133946;27;2164;-62
2023/05/19 03:21:06;;;;;;;;;;;;;;;;;;5152598;27;1775;-60
2023/05/19 03:23:33;;;;;;;;;;;;;;;;;;5133993;27;2098;-53
2023/05/19 03:26:00;;;;;;;;;;;;;;;;;;5151927;27;1972;-58
2023/05/19 03:28:27;;;;;;;;;;;;;;;;;;5152371;27;1248;-57
2023/05/19 03:30:55;;;;;;;;;;;;;;;;;;5134064;27;2015;-63
2023/05/19 03:33:28;;;;;;;;;;;;;;;;;;5133852;27;1455;-60
2023/05/19 03:35:56;;;;;;;;;;;;;;;;;;5133838;27;1780;-54
2023/05/19 03:38:25;;;;;;;;;;;;;;;;;;5133746;27;2237;-56
2023/05/19 03:40:56;;;;;;;;;;;;;;;;;;5155173;27;1468;-59
2023/05/19 03:43:24;;;;;;;;;;;;;;;;;;5156656;27;1495;-47
2023/05/19 03:46:01;;;;;;;;;;;;;;;;;;5156084;27;1914;-53
2023/05/19 03:48:37;;;;;;;;;;;;;;;;;;5156249;27;2019;-53
2023/05/19 03:51:31;;;;;;;;;;;;;;;;;;5153331;27;2027;-54
2023/05/19 03:54:10;;;;;;;;;;;;;;;;;;5137653;27;1735;-52
2023/05/19 03:56:41;;;;;;;;;;;;;;;;;;5171772;27;1686;-52
2023/05/19 03:59:11;;;;;;;;;;;;;;;;;;5177364;27;1802;-52
2023/05/19 04:01:39;;;;;;;;;;;;;;;;;;5158613;27;1827;-49
2023/05/19 04:04:06;;;;;;;;;;;;;;;;;;5158646;27;2395;-55
2023/05/19 04:06:35;;;;;;;;;;;;;;;;;;5158324;27;1906;-62
2023/05/19 04:09:03;;;;;;;;;;;;;;;;;;5176919;27;1895;-61
2023/05/19 04:11:32;;;;;;;;;;;;;;;;;;5176996;27;2056;-57
2023/05/19 04:13:59;;;;;;;;;;;;;;;;;;5176987;27;1912;-65
2023/05/19 04:16:26;;;;;;;;;;;;;;;;;;5158044;27;1649;-62
2023/05/19 04:18:54;;;;;;;;;;;;;;;;;;5158252;27;1804;-58
2023/05/19 04:21:21;;;;;;;;;;;;;;;;;;5176974;27;1814;-55
2023/05/19 04:23:49;;;;;;;;;;;;;;;;;;5176810;27;1869;-61
2023/05/19 04:26:18;;;;;;;;;;;;;;;;;;5157982;27;1976;-58
2023/05/19 04:28:45;;;;;;;;;;;;;;;;;;5157753;27;2257;-65
2023/05/19 04:31:13;;;;;;;;;;;;;;;;;;5158010;27;1681;-54
2023/05/19 04:33:41;;;;;;;;;;;;;;;;;;5158012;27;1699;-57
2023/05/19 04:36:10;;;;;;;;;;;;;;;;;;5157707;27;1688;-62
2023/05/19 04:38:39;;;;;;;;;;;;;;;;;;5157721;27;1349;-60
2023/05/19 04:41:09;;;;;;;;;;;;;;;;;;5157508;27;1594;-63
2023/05/19 04:43:40;;;;;;;;;;;;;;;;;;5157752;27;2295;-60
2023/05/19 04:46:09;;;;;;;;;;;;;;;;;;5176089;27;1898;-60
2023/05/19 04:48:40;;;;;;;;;;;;;;;;;;5157155;27;1871;-56
2023/05/19 04:51:07;;;;;;;;;;;;;;;;;;5175565;27;1815;-64
2023/05/19 04:53:35;;;;;;;;;;;;;;;;;;5157515;27;2252;-60
2023/05/19 04:56:06;;;;;;;;;;;;;;;;;;5157285;27;2194;-51
2023/05/19 04:58:33;;;;;;;;;;;;;;;;;;5159132;27;1989;-53
2023/05/19 05:01:01;;;;;;;;;;;;;;;;;;5136489;27;1729;-53
2023/05/19 05:03:29;;;;;;;;;;;;;;;;;;5136697;27;1649;-65
2023/05/19 05:05:57;;;;;;;;;;;;;;;;;;5136838;27;1934;-64
2023/05/19 05:08:24;;;;;;;;;;;;;;;;;;5136533;27;1595;-57
2023/05/19 05:10:53;;;;;;;;;;;;;;;;;;5154869;27;1949;-63
2023/05/19 05:13:22;;;;;;;;;;;;;;;;;;5154837;27;1760;-60
2023/05/19 05:15:51;;;;;;;;;;;;;;;;;;5136272;27;1620;-66
2023/05/19 05:18:21;;;;;;;;;;;;;;;;;;5135898;27;1868;-60
2023/05/19 05:20:48;;;;;;;;;;;;;;;;;;5136104;27;2038;-60
2023/05/19 05:23:16;;;;;;;;;;;;;;;;;;5136260;27;1435;-57
2023/05/19 05:25:46;;;;;;;;;;;;;;;;;;5136127;27;1910;-61
2023/05/19 05:28:14;;;;;;;;;;;;;;;;;;5135639;27;1967;-49
2023/05/19 05:30:43;;;;;;;;;;;;;;;;;;5119139;27;1833;-54
2023/05/19 05:33:12;;;;;;;;;;;;;;;;;;5135910;27;2462;-50
2023/05/19 05:35:40;;;;;;;;;;;;;;;;;;5154534;27;2036;-57
2023/05/19 05:38:10;;;;;;;;;;;;;;;;;;5135684;27;2011;-58
2023/05/19 05:40:38;;;;;;;;;;;;;;;;;;5134890;27;1598;-55
2023/05/19 05:43:07;;;;;;;;;;;;;;;;;;5133652;27;1442;-49
2023/05/19 05:45:40;;;;;;;;;;;;;;;;;;5133219;27;2082;-59
2023/05/19 05:48:08;;;;;;;;;;;;;;;;;;5152658;27;1965;-49
2023/05/19 05:50:35;;;;;;;;;;;;;;;;;;5133839;27;1402;-50
2023/05/19 05:53:05;;;;;;;;;;;;;;;;;;5152566;27;1755;-59
2023/05/19 05:55:35;;;;;;;;;;;;;;;;;;5134332;27;1850;-53
2023/05/19 05:58:04;;;;;;;;;;;;;;;;;;5135424;27;1795;-54
2023/05/19 06:00:32;;;;;;;;;;;;;;;;;;5165689;27;2284;-56
2023/05/19 06:02:59;;;;;;;;;;;;;;;;;;5155270;27;1532;-57
2023/05/19 06:05:26;;;;;;;;;;;;;;;;;;5174774;27;2123;-55
2023/05/19 06:07:55;;;;;;;;;;;;;;;;;;5156248;27;1792;-58
2023/05/19 06:10:25;;;;;;;;;;;;;;;;;;5155855;27;2214;-56
2023/05/19 06:12:53;;;;;;;;;;;;;;;;;;5155926;27;2045;-49
2023/05/19 06:15:22;;;;;;;;;;;;;;;;;;5153856;27;1859;-59
2023/05/19 06:17:55;;;;;;;;;;;;;;;;;;5135595;27;1696;-53
2023/05/19 06:20:22;;;;;;;;;;;;;;;;;;5153384;27;1851;-54
2023/05/19 06:22:50;;;;;;;;;;;;;;;;;;5135358;27;2019;-51
2023/05/19 06:25:19;;;;;;;;;;;;;;;;;;5134915;27;1902;-54
2023/05/19 06:27:47;;;;;;;;;;;;;;;;;;5134654;27;2040;-52
2023/05/19 06:30:14;;;;;;;;;;;;;;;;;;5134888;27;1897;-59
2023/05/19 06:33:00;;;;;;;;;;;;;;;;;;5134997;27;1529;-57
2023/05/19 06:35:29;;;;;;;;;;;;;;;;;;5134780;27;2169;-60
2023/05/19 06:37:57;;;;;;;;;;;;;;;;;;5134645;27;2413;-56
2023/05/19 06:40:24;;;;;;;;;;;;;;;;;;5134538;27;1654;-47
2023/05/19 06:42:52;;;;;;;;;;;;;;;;;;5134667;27;2052;-48
2023/05/19 06:45:40;;;;;;;;;;;;;;;;;;5141820;27;1937;-53
2023/05/19 06:48:07;;;;;;;;;;;;;;;;;;5134803;27;1604;-61
2023/05/19 06:50:35;;;;;;;;;;;;;;;;;;5133544;27;2332;-46
2023/05/19 06:53:03;;;;;;;;;;;;;;;;;;5134848;27;2185;-46
2023/05/19 06:55:31;;;;;;;;;;;;;;;;;;5153129;27;1767;-48
2023/05/19 06:58:00;;;;;;;;;;;;;;;;;;5134318;27;1506;-48
2023/05/19 07:00:28;;;;;;;;;;;;;;;;;;5134151;27;1244;-50
2023/05/19 07:02:56;;;;;;;;;;;;;;;;;;5134463;27;1717;-47
2023/05/19 07:05:23;;;;;;;;;;;;;;;;;;5134085;27;2010;-49
2023/05/19 07:07:55;;;;;;;;;;;;;;;;;;5133880;27;1652;-49
2023/05/19 07:10:25;;;;;;;;;;;;;;;;;;5134209;27;1807;-48
2023/05/19 07:12:53;;;;;;;;;;;;;;;;;;5134236;27;1476;-47
2023/05/19 07:15:23;;;;;;;;;;;;;;;;;;5133552;27;1873;-48
2023/05/19 07:17:50;;;;;;;;;;;;;;;;;;5116906;27;2069;-48
2023/05/19 07:20:18;;;;;;;;;;;;;;;;;;5152830;27;2019;-47
2023/05/19 07:22:45;;;;;;;;;;;;;;;;;;5152436;27;1757;-49
2023/05/19 07:25:16;;;;;;;;;;;;;;;;;;5152605;27;2082;-49
2023/05/19 07:27:46;;;;;;;;;;;;;;;;;;5133918;27;1593;-48
2023/05/19 07:30:13;;;;;;;;;;;;;;;;;;5152733;27;2099;-49
2023/05/19 07:32:40;;;;;;;;;;;;;;;;;;5152743;27;1970;-47
2023/05/19 07:35:07;;;;;;;;;;;;;;;;;;5152840;27;1777;-50
2023/05/19 07:37:34;;;;;;;;;;;;;;;;;;5152816;27;2114;-48
2023/05/19 07:40:02;;;;;;;;;;;;;;;;;;5134050;27;2119;-48
2023/05/19 07:42:29;;;;;;;;;;;;;;;;;;5152691;27;1525;-48
2023/05/19 07:44:56;;;;;;;;;;;;;;;;;;5152378;27;1702;-51
2023/05/19 07:47:23;;;;;;;;;;;;;;;;;;5152312;27;2051;-49
2023/05/19 07:49:50;;;;;;;;;;;;;;;;;;5152155;27;1807;-56
2023/05/19 07:52:18;;;;;;;;;;;;;;;;;;5152544;27;2010;-55
2023/05/19 07:54:45;;;;;;;;;;;;;;;;;;5152825;27;2204;-50
2023/05/19 07:57:13;;;;;;;;;;;;;;;;;;5157395;27;1893;-47
2023/05/19 07:59:40;;;;;;;;;;;;;;;;;;5173215;27;2034;-48
2023/05/19 08:02:07;;;;;;;;;;;;;;;;;;5173556;27;1869;-46
2023/05/19 08:04:35;;;;;;;;;;;;;;;;;;5173695;27;2011;-48
2023/05/19 08:07:02;;;;;;;;;;;;;;;;;;5173061;27;1921;-51
2023/05/19 08:09:29;;;;;;;;;;;;;;;;;;5173176;27;1832;-54
2023/05/19 08:11:57;;;;;;;;;;;;;;;;;;5172916;27;1513;-48
2023/05/19 08:14:25;;;;;;;;;;;;;;;;;;5173064;27;1776;-45
2023/05/19 08:16:52;;;;;;;;;;;;;;;;;;5172650;27;1776;-47
2023/05/19 08:19:19;;;;;;;;;;;;;;;;;;5173125;27;2179;-48
2023/05/19 08:21:48;;;;;;;;;;;;;;;;;;5173043;27;1939;-48
2023/05/19 08:24:15;;;;;;;;;;;;;;;;;;5172988;27;1757;-48
2023/05/19 08:26:43;;;;;;;;;;;;;;;;;;5173454;27;1905;-47
2023/05/19 08:29:10;;;;;;;;;;;;;;;;;;5176854;27;1905;-49
2023/05/19 08:31:37;;;;;;;;;;;;;;;;;;5176796;27;2209;-52
2023/05/19 08:34:04;;;;;;;;;;;;;;;;;;5176680;27;1816;-49
2023/05/19 08:36:32;;;;;;;;;;;;;;;;;;5176656;27;1561;-46
2023/05/19 08:39:00;;;;;;;;;;;;;;;;;;5176491;27;1596;-47
2023/05/19 08:41:27;;;;;;;;;;;;;;;;;;5176579;27;2039;-47
2023/05/19 08:43:54;;;;;;;;;;;;;;;;;;5176454;27;2147;-50
2023/05/19 08:46:23;;;;;;;;;;;;;;;;;;5176434;27;1968;-47
2023/05/19 08:48:53;;;;;;;;;;;;;;;;;;5176379;27;1560;-48
2023/05/19 08:51:27;;;;;;;;;;;;;;;;;;5176275;27;1684;-48
2023/05/19 08:53:58;;;;;;;;;;;;;;;;;;5176109;27;1976;-47
2023/05/19 08:56:29;;;;;;;;;;;;;;;;;;5175970;27;2220;-49
2023/05/19 08:58:59;;;;;;;;;;;;;;;;;;5155956;27;2278;-50
2023/05/19 09:01:27;;;;;;;;;;;;;;;;;;5155326;27;2007;-52
2023/05/19 09:03:55;;;;;;;;;;;;;;;;;;5155060;27;2375;-52
2023/05/19 09:06:22;;;;;;;;;;;;;;;;;;5154754;27;2090;-52
2023/05/19 09:08:49;;;;;;;;;;;;;;;;;;5155167;27;1600;-53
2023/05/19 09:11:16;;;;;;;;;;;;;;;;;;5154897;27;2001;-46
2023/05/19 09:13:44;;;;;;;;;;;;;;;;;;5155030;27;1562;-46
2023/05/19 09:16:12;;;;;;;;;;;;;;;;;;5155102;27;1865;-47
2023/05/19 09:18:42;;;;;;;;;;;;;;;;;;5155121;27;1571;-46
2023/05/19 09:21:10;;;;;;;;;;;;;;;;;;5154863;27;1580;-48
2023/05/19 09:23:37;;;;;;;;;;;;;;;;;;5154839;27;1871;-47
2023/05/19 09:26:07;;;;;;;;;;;;;;;;;;5154615;27;1910;-46
2023/05/19 09:28:36;;;;;;;;;;;;;;;;;;5154717;27;1720;-46
2023/05/19 09:31:10;;;;;;;;;;;;;;;;;;5154295;27;2121;-49
2023/05/19 09:33:38;;;;;;;;;;;;;;;;;;5154769;27;1965;-59
2023/05/19 09:36:07;;;;;;;;;;;;;;;;;;5154398;27;2014;-47
2023/05/19 09:38:35;;;;;;;;;;;;;;;;;;5154160;27;1952;-66
2023/05/19 09:41:03;;;;;;;;;;;;;;;;;;5154442;27;1591;-48
2023/05/19 09:43:32;;;;;;;;;;;;;;;;;;5154060;27;1979;-61
2023/05/19 09:46:02;;;;;;;;;;;;;;;;;;5154538;27;1910;-47
2023/05/19 09:48:29;;;;;;;;;;;;;;;;;;5154008;27;1754;-58
2023/05/19 09:50:56;;;;;;;;;;;;;;;;;;5154205;27;1592;-49
2023/05/19 09:53:24;;;;;;;;;;;;;;;;;;5154248;27;1985;-47
2023/05/19 09:55:56;;;;;;;;;;;;;;;;;;5154396;27;1747;-54
2023/05/19 09:58:24;;;;;;;;;;;;;;;;;;5169417;27;2284;-46
2023/05/19 10:00:53;;;;;;;;;;;;;;;;;;5174981;27;1982;-47
2023/05/19 10:03:22;;;;;;;;;;;;;;;;;;5174786;27;1786;-48
2023/05/19 10:05:51;;;;;;;;;;;;;;;;;;5174763;27;1943;-49
2023/05/19 10:08:20;;;;;;;;;;;;;;;;;;5174287;27;1940;-48
2023/05/19 10:10:47;;;;;;;;;;;;;;;;;;5175179;27;1851;-66
2023/05/19 10:13:15;;;;;;;;;;;;;;;;;;5174802;27;1657;-47
2023/05/19 10:15:42;;;;;;;;;;;;;;;;;;5174507;27;1998;-52
2023/05/19 10:18:23;;;;;;;;;;;;;;;;;;5174611;27;1987;-51
2023/05/19 10:20:52;;;;;;;;;;;;;;;;;;5174709;27;1591;-67
2023/05/19 10:23:19;;;;;;;;;;;;;;;;;;5174467;27;2384;-47
2023/05/19 10:25:48;;;;;;;;;;;;;;;;;;5174683;27;1958;-48
2023/05/19 10:28:16;;;;;;;;;;;;;;;;;;5174354;27;1966;-48
2023/05/19 10:30:44;;;;;;;;;;;;;;;;;;5174213;27;1626;-48
2023/05/19 10:33:14;;;;;;;;;;;;;;;;;;5174368;27;1481;-48
2023/05/19 10:36:01;;;;;;;;;;;;;;;;;;5174247;27;2127;-51
2023/05/19 10:38:32;;;;;;;;;;;;;;;;;;5174044;27;1664;-48
2023/05/19 10:41:08;;;;;;;;;;;;;;;;;;5174256;27;1504;-47
2023/05/19 10:43:36;;;;;;;;;;;;;;;;;;5174043;27;1813;-46
2023/05/19 10:46:03;;;;;;;;;;;;;;;;;;5174156;27;1240;-49
2023/05/19 10:48:35;;;;;;;;;;;;;;;;;;5173810;27;1909;-59
2023/05/19 10:51:02;;;;;;;;;;;;;;;;;;5173266;27;2093;-46
2023/05/19 10:53:30;;;;;;;;;;;;;;;;;;5173987;27;2018;-49
2023/05/19 10:56:02;;;;;;;;;;;;;;;;;;5173786;27;1956;-48
2023/05/19 10:58:40;;;;;;;;;;;;;;;;;;5157689;27;1666;-47
2023/05/19 11:01:09;;;;;;;;;;;;;;;;;;5153211;27;1992;-48
2023/05/19 11:03:43;;;;;;;;;;;;;;;;;;5152904;27;1853;-49
2023/05/19 11:06:30;;;;;;;;;;;;;;;;;;5153133;27;2155;-47
2023/05/19 11:09:04;;;;;;;;;;;;;;;;;;5153106;27;2149;-49
2023/05/19 11:11:45;;;;;;;;;;;;;;;;;;5153024;27;1774;-47
2023/05/19 11:14:13;;;;;;;;;;;;;;;;;;5152765;27;2033;-59
2023/05/19 11:16:44;;;;;;;;;;;;;;;;;;5152780;27;2166;-48
2023/05/19 11:19:31;;;;;;;;;;;;;;;;;;5152883;27;2100;-47
2023/05/19 11:22:08;;;;;;;;;;;;;;;;;;5152918;27;1846;-46
2023/05/19 11:24:36;;;;;;;;;;;;;;;;;;5152503;27;1578;-46
2023/05/19 11:27:22;;;;;;;;;;;;;;;;;;5152721;27;1971;-46
2023/05/19 11:29:52;;;;;;;;;;;;;;;;;;5152860;27;1789;-50
2023/05/19 11:32:21;;;;;;;;;;;;;;;;;;5152784;27;1829;-48
2023/05/19 11:34:51;;;;;;;;;;;;;;;;;;5152792;27;1708;-47
2023/05/19 11:37:18;;;;;;;;;;;;;;;;;;5152909;27;1329;-47
2023/05/19 11:39:48;;;;;;;;;;;;;;;;;;5152497;27;1513;-48
2023/05/19 11:42:15;;;;;;;;;;;;;;;;;;5152540;27;2058;-47
2023/05/19 11:44:46;;;;;;;;;;;;;;;;;;5152843;27;1873;-47
2023/05/19 11:47:13;;;;;;;;;;;;;;;;;;5152324;27;1972;-46
2023/05/19 11:49:43;;;;;;;;;;;;;;;;;;5152553;27;1233;-47
2023/05/19 11:52:11;;;;;;;;;;;;;;;;;;5152419;27;2102;-49
2023/05/19 11:54:40;;;;;;;;;;;;;;;;;;5152566;27;1647;-46
2023/05/19 11:57:10;;;;;;;;;;;;;;;;;;5156706;27;2147;-48
2023/05/19 11:59:42;;;;;;;;;;;;;;;;;;5173269;27;1822;-46
2023/05/19 12:02:26;;;;;;;;;;;;;;;;;;5176581;27;1650;-48
2023/05/19 12:04:53;;;;;;;;;;;;;;;;;;5158613;27;1830;-47
2023/05/19 12:07:22;;;;;;;;;;;;;;;;;;5177541;27;2039;-49
2023/05/19 12:09:50;;;;;;;;;;;;;;;;;;5177035;27;1744;-47
2023/05/19 12:12:18;;;;;;;;;;;;;;;;;;5176938;27;1469;-49
2023/05/19 12:14:46;;;;;;;;;;;;;;;;;;5177125;27;1328;-49
2023/05/19 12:17:18;;;;;;;;;;;;;;;;;;5176798;27;2008;-46
2023/05/19 12:19:47;;;;;;;;;;;;;;;;;;5176938;27;1445;-48
2023/05/19 12:22:15;;;;;;;;;;;;;;;;;;5176806;27;1669;-46
2023/05/19 12:24:43;;;;;;;;;;;;;;;;;;5176749;27;1465;-57
2023/05/19 12:27:13;;;;;;;;;;;;;;;;;;5176488;27;1974;-49
2023/05/19 12:29:40;;;;;;;;;;;;;;;;;;5176705;27;1551;-47
2023/05/19 12:32:08;;;;;;;;;;;;;;;;;;5175889;27;1434;-48
2023/05/19 12:34:37;;;;;;;;;;;;;;;;;;5176677;27;1788;-48
2023/05/19 12:37:04;;;;;;;;;;;;;;;;;;5176606;27;1652;-50
2023/05/19 12:39:32;;;;;;;;;;;;;;;;;;5176501;27;1258;-46
2023/05/19 12:42:03;;;;;;;;;;;;;;;;;;5176179;27;1764;-48
2023/05/19 12:44:35;;;;;;;;;;;;;;;;;;5176871;27;2033;-50
2023/05/19 12:47:03;;;;;;;;;;;;;;;;;;5176169;27;1902;-47
2023/05/19 12:49:31;;;;;;;;;;;;;;;;;;5176327;27;1454;-47
2023/05/19 12:52:00;;;;;;;;;;;;;;;;;;5176129;27;1480;-47
2023/05/19 12:54:33;;;;;;;;;;;;;;;;;;5176266;27;1845;-48
2023/05/19 12:57:00;;;;;;;;;;;;;;;;;;5176114;27;2150;-47
2023/05/19 12:59:27;;;;;;;;;;;;;;;;;;5176343;27;1606;-47
2023/05/19 13:02:05;;;;;;;;;;;;;;;;;;5176002;27;1684;-50
2023/05/19 13:04:32;;;;;;;;;;;;;;;;;;5176375;27;1718;-50
2023/05/19 13:06:59;;;;;;;;;;;;;;;;;;5176081;27;1977;-49
2023/05/19 13:09:27;;;;;;;;;;;;;;;;;;5176358;27;2092;-46
2023/05/19 13:11:54;;;;;;;;;;;;;;;;;;5175945;27;1824;-48
2023/05/19 13:14:21;;;;;;;;;;;;;;;;;;5175389;27;1641;-48
2023/05/19 13:16:49;;;;;;;;;;;;;;;;;;5175750;27;2120;-46
2023/05/19 13:19:17;;;;;;;;;;;;;;;;;;5175617;27;1804;-47
2023/05/19 13:21:51;;;;;;;;;;;;;;;;;;5175759;27;2133;-53
2023/05/19 13:24:18;;;;;;;;;;;;;;;;;;5175011;27;1857;-46
2023/05/19 13:26:46;;;;;;;;;;;;;;;;;;5175674;27;1909;-49
2023/05/19 13:29:13;;;;;;;;;;;;;;;;;;5175516;27;1960;-54
2023/05/19 13:31:41;;;;;;;;;;;;;;;;;;5175684;27;1917;-52
2023/05/19 13:34:08;;;;;;;;;;;;;;;;;;5175461;27;2113;-46
2023/05/19 13:36:35;;;;;;;;;;;;;;;;;;5175589;27;1592;-55
2023/05/19 13:39:02;;;;;;;;;;;;;;;;;;5175562;27;1990;-48
2023/05/19 13:41:30;;;;;;;;;;;;;;;;;;5175377;27;2005;-48
2023/05/19 13:43:58;;;;;;;;;;;;;;;;;;5175508;27;1978;-46
2023/05/19 13:46:26;;;;;;;;;;;;;;;;;;5175168;27;1446;-47
2023/05/19 13:49:09;;;;;;;;;;;;;;;;;;5175075;27;1968;-51
2023/05/19 13:51:36;;;;;;;;;;;;;;;;;;5174966;27;1858;-50
2023/05/19 13:54:04;;;;;;;;;;;;;;;;;;5175013;27;2173;-47
2023/05/19 13:56:31;;;;;;;;;;;;;;;;;;5175064;27;1570;-47
2023/05/19 13:58:58;;;;;;;;;;;;;;;;;;5175046;27;1951;-52
2023/05/19 14:01:25;;;;;;;;;;;;;;;;;;5175002;27;2041;-48
2023/05/19 14:03:53;;;;;;;;;;;;;;;;;;5174795;27;1968;-47
2023/05/19 14:06:20;;;;;;;;;;;;;;;;;;5174892;27;2107;-48
2023/05/19 14:08:47;;;;;;;;;;;;;;;;;;5174757;27;2030;-48
2023/05/19 14:11:18;;;;;;;;;;;;;;;;;;5174482;27;1382;-46
2023/05/19 14:13:49;;;;;;;;;;;;;;;;;;5174830;27;1517;-48
2023/05/19 14:16:20;;;;;;;;;;;;;;;;;;5174677;27;1817;-46
2023/05/19 14:18:48;;;;;;;;;;;;;;;;;;5174510;27;1986;-48
2023/05/19 14:21:15;;;;;;;;;;;;;;;;;;5174604;27;1712;-49
2023/05/19 14:23:42;;;;;;;;;;;;;;;;;;5174350;27;1430;-46
2023/05/19 14:26:09;;;;;;;;;;;;;;;;;;5174751;27;1613;-46
2023/05/19 14:28:37;;;;;;;;;;;;;;;;;;5174553;27;1980;-47
2023/05/19 14:31:04;;;;;;;;;;;;;;;;;;5174832;27;1776;-50
2023/05/19 14:33:32;;;;;;;;;;;;;;;;;;5174514;27;2037;-48
2023/05/19 14:36:01;;;;;;;;;;;;;;;;;;5174466;27;1803;-49
2023/05/19 14:38:28;;;;;;;;;;;;;;;;;;5174321;27;2198;-48
2023/05/19 14:40:55;;;;;;;;;;;;;;;;;;5174543;27;1924;-50
2023/05/19 14:43:23;;;;;;;;;;;;;;;;;;5174261;27;1805;-47
2023/05/19 14:45:50;;;;;;;;;;;;;;;;;;5174253;27;1427;-47
2023/05/19 14:48:17;;;;;;;;;;;;;;;;;;5174124;27;1924;-48
2023/05/19 14:50:47;;;;;;;;;;;;;;;;;;5173736;27;2272;-48
2023/05/19 14:53:15;;;;;;;;;;;;;;;;;;5173889;27;1577;-47
2023/05/19 14:55:42;;;;;;;;;;;;;;;;;;5174249;27;1633;-47
2023/05/19 14:58:09;;;;;;;;;;;;;;;;;;5160479;27;1855;-48
2023/05/19 15:00:53;;;;;;;;;;;;;;;;;;5153082;27;1471;-47
2023/05/19 15:03:21;;;;;;;;;;;;;;;;;;5152778;27;1872;-47
2023/05/19 15:05:49;;;;;;;;;;;;;;;;;;5153077;27;2077;-47
2023/05/19 15:08:16;;;;;;;;;;;;;;;;;;5152941;27;2169;-50
2023/05/19 15:10:47;;;;;;;;;;;;;;;;;;5153277;27;2022;-54
2023/05/19 15:13:14;;;;;;;;;;;;;;;;;;5153155;27;1833;-47
2023/05/19 15:15:41;;;;;;;;;;;;;;;;;;5152400;27;1681;-51
2023/05/19 15:18:10;;;;;;;;;;;;;;;;;;5152752;27;1987;-49
2023/05/19 15:20:37;;;;;;;;;;;;;;;;;;5152886;27;1817;-47
2023/05/19 15:23:04;;;;;;;;;;;;;;;;;;5152981;27;1473;-48
2023/05/19 15:25:31;;;;;;;;;;;;;;;;;;5152761;27;1529;-47
2023/05/19 15:27:59;;;;;;;;;;;;;;;;;;5152565;27;1905;-54
2023/05/19 15:30:26;;;;;;;;;;;;;;;;;;5149320;27;1814;-51
2023/05/19 15:32:54;;;;;;;;;;;;;;;;;;5156390;27;1755;-47
2023/05/19 15:35:21;;;;;;;;;;;;;;;;;;5173669;27;1922;-49
2023/05/19 15:37:48;;;;;;;;;;;;;;;;;;5177763;27;1976;-50
2023/05/19 15:40:15;;;;;;;;;;;;;;;;;;5178117;27;1759;-50
2023/05/19 15:42:43;;;;;;;;;;;;;;;;;;5177652;27;1749;-63
2023/05/19 15:45:10;;;;;;;;;;;;;;;;;;5177813;27;2016;-51
2023/05/19 15:47:37;;;;;;;;;;;;;;;;;;5177284;27;2008;-51
2023/05/19 15:50:04;;;;;;;;;;;;;;;;;;5177355;27;1770;-47
2023/05/19 15:52:32;;;;;;;;;;;;;;;;;;5177439;27;1873;-53
2023/05/19 15:54:59;;;;;;;;;;;;;;;;;;5177264;27;1727;-49
2023/05/19 15:57:28;;;;;;;;;;;;;;;;;;5177173;27;1921;-50
2023/05/19 15:59:55;;;;;;;;;;;;;;;;;;5177516;27;2074;-50
2023/05/19 16:02:23;;;;;;;;;;;;;;;;;;5177385;27;1752;-50
2023/05/19 16:04:50;;;;;;;;;;;;;;;;;;5177238;27;1900;-54
2023/05/19 16:07:17;;;;;;;;;;;;;;;;;;5177258;27;1910;-61
2023/05/19 16:09:48;;;;;;;;;;;;;;;;;;5176557;27;2202;-51
2023/05/19 16:12:16;;;;;;;;;;;;;;;;;;5177210;27;1819;-53
2023/05/19 16:14:43;;;;;;;;;;;;;;;;;;5177189;27;1870;-54
2023/05/19 16:17:12;;;;;;;;;;;;;;;;;;5177222;27;2156;-49
2023/05/19 16:19:39;;;;;;;;;;;;;;;;;;5177221;27;1961;-52
2023/05/19 16:22:07;;;;;;;;;;;;;;;;;;5176980;27;1740;-55
2023/05/19 16:24:34;;;;;;;;;;;;;;;;;;5176970;27;1661;-64
2023/05/19 16:27:01;;;;;;;;;;;;;;;;;;5176683;27;1560;-62
2023/05/19 16:29:28;;;;;;;;;;;;;;;;;;5176732;27;1976;-51
2023/05/19 16:31:55;;;;;;;;;;;;;;;;;;5176679;27;1895;-62
2023/05/19 16:34:23;;;;;;;;;;;;;;;;;;5176715;27;2170;-52
2023/05/19 16:36:50;;;;;;;;;;;;;;;;;;5176672;27;1984;-48
2023/05/19 16:39:17;;;;;;;;;;;;;;;;;;5176814;27;1680;-59
2023/05/19 16:41:44;;;;;;;;;;;;;;;;;;5176520;27;1867;-55
2023/05/19 16:44:13;;;;;;;;;;;;;;;;;;5176760;27;1444;-56
2023/05/19 16:46:40;;;;;;;;;;;;;;;;;;5176295;27;1530;-60
2023/05/19 16:49:07;;;;;;;;;;;;;;;;;;5175609;27;2066;-59
2023/05/19 16:51:35;;;;;;;;;;;;;;;;;;5175967;27;2198;-54
2023/05/19 16:54:02;;;;;;;;;;;;;;;;;;5176458;27;2103;-58
2023/05/19 16:56:30;;;;;;;;;;;;;;;;;;5157955;27;1482;-49
2023/05/19 16:58:57;;;;;;;;;;;;;;;;;;5155878;27;1671;-56
2023/05/19 17:01:24;;;;;;;;;;;;;;;;;;5155265;27;2127;-46
2023/05/19 17:03:53;;;;;;;;;;;;;;;;;;5155156;27;1827;-48
2023/05/19 17:06:20;;;;;;;;;;;;;;;;;;5155146;27;1441;-47
2023/05/19 17:08:48;;;;;;;;;;;;;;;;;;5155004;27;1976;-47
2023/05/19 17:11:15;;;;;;;;;;;;;;;;;;5155103;27;1776;-47
2023/05/19 17:13:45;;;;;;;;;;;;;;;;;;5154998;27;1903;-55
2023/05/19 17:16:13;;;;;;;;;;;;;;;;;;5155094;27;1936;-64